Time;durP1;ratioP1;P1;durP2;ratioP2;P2;SDS_P1;SDS_P2;PMS_P1;PMS_P2;Temp;Humidity;BMP_temperature;BMP_pressure;BME280_temperature;BME280_humidity;BME280_pressure;Samples;Min_cycle;Max_cycle;Signal;HPM_P1;HPM_P2
2022/07/19 00:00:17;;;;;;;;;;;;;;;;;;10251265;28;20081;-67
2022/07/19 00:05:15;;;;;;;3.10;1.40;;;;;;;;;;10248814;28;19953;-65
2022/07/19 00:10:16;;;;;;;2.22;1.48;;;;;;;;;;10249733;28;20069;-67
2022/07/19 00:15:15;;;;;;;4.93;1.50;;;;;;;;;;10236562;28;20056;-66
2022/07/19 00:20:15;;;;;;;1.90;1.40;;;;;;;;;;10236566;28;20041;-67
2022/07/19 00:25:15;;;;;;;3.72;1.50;;;;;;;;;;10246505;28;20092;-66
2022/07/19 00:30:14;;;;;;;2.17;1.17;;;;;;;;;;10251021;28;20053;-65
2022/07/19 00:35:12;;;;;;;1.42;1.20;;;;;;;;;;10248995;28;20076;-67
2022/07/19 00:40:11;;;;;;;2.47;1.58;;;;;;;;;;10235633;28;20407;-65
2022/07/19 00:45:11;;;;;;;1.73;1.25;;;;;;;;;;10235613;28;20447;-65
2022/07/19 00:50:10;;;;;;;5.55;1.23;;;;;;;;;;10235477;28;20072;-66
2022/07/19 00:55:09;;;;;;;6.22;1.85;;;;;;;;;;10249499;28;20096;-66
2022/07/19 01:00:08;;;;;;;5.57;1.85;;;;;;;;;;10248175;28;20513;-66
2022/07/19 01:05:09;;;;;;;5.53;2.30;;;;;;;;;;10244120;28;20089;-67
2022/07/19 01:10:08;;;;;;;15.70;6.70;;;;;;;;;;10247599;28;20056;-66
2022/07/19 01:15:13;;;;;;;12.55;4.25;;;;;;;;;;10247669;28;20088;-68
2022/07/19 01:20:13;;;;;;;3.55;2.35;;;;;;;;;;10247322;28;20460;-67
2022/07/19 01:25:13;;;;;;;5.75;1.60;;;;;;;;;;10247799;28;20084;-67
2022/07/19 01:30:13;;;;;;;11.13;2.40;;;;;;;;;;10247162;28;20072;-67
2022/07/19 01:35:11;;;;;;;4.43;2.30;;;;;;;;;;10246786;28;20490;-65
2022/07/19 01:40:10;;;;;;;4.70;2.80;;;;;;;;;;10246317;28;20119;-66
2022/07/19 01:45:11;;;;;;;6.65;2.90;;;;;;;;;;10246065;28;20037;-66
2022/07/19 01:50:11;;;;;;;4.85;3.30;;;;;;;;;;10247056;28;20080;-66
2022/07/19 01:55:09;;;;;;;10.77;4.15;;;;;;;;;;10246405;28;20072;-66
2022/07/19 02:00:08;;;;;;;3.88;2.42;;;;;;;;;;10245974;28;20077;-66
2022/07/19 02:05:11;;;;;;;3.10;2.10;;;;;;;;;;10236008;28;20052;-68
2022/07/19 02:10:10;;;;;;;3.53;2.33;;;;;;;;;;10233477;28;20052;-68
2022/07/19 02:15:08;;;;;;;5.15;2.30;;;;;;;;;;10246353;28;20112;-68
2022/07/19 02:20:07;;;;;;;5.60;1.95;;;;;;;;;;10246381;28;20046;-68
2022/07/19 02:25:08;;;;;;;3.50;1.90;;;;;;;;;;10245689;28;20137;-68
2022/07/19 02:30:07;;;;;;;3.25;2.17;;;;;;;;;;10245772;28;20092;-68
2022/07/19 02:35:06;;;;;;;1.63;1.40;;;;;;;;;;10245998;28;20074;-68
2022/07/19 02:40:05;;;;;;;4.00;2.10;;;;;;;;;;10246305;28;20052;-68
2022/07/19 02:45:05;;;;;;;2.20;1.88;;;;;;;;;;10244977;28;20448;-68
2022/07/19 02:50:04;;;;;;;12.73;2.72;;;;;;;;;;10245683;28;20484;-69
2022/07/19 02:55:02;;;;;;;4.47;1.83;;;;;;;;;;10244983;28;20088;-67
2022/07/19 03:00:00;;;;;;;3.65;1.67;;;;;;;;;;10244672;28;20084;-68
2022/07/19 03:05:00;;;;;;;12.35;3.47;;;;;;;;;;10245389;28;20068;-69
2022/07/19 03:09:58;;;;;;;10.73;2.85;;;;;;;;;;10252943;28;20092;-68
2022/07/19 03:14:57;;;;;;;6.18;2.45;;;;;;;;;;10253738;28;20057;-69
2022/07/19 03:19:55;;;;;;;5.15;2.20;;;;;;;;;;10252337;28;20093;-69
2022/07/19 03:24:56;;;;;;;6.43;2.70;;;;;;;;;;10252245;28;20488;-68
2022/07/19 03:29:55;;;;;;;5.25;2.75;;;;;;;;;;10252230;28;20073;-68
2022/07/19 03:34:53;;;;;;;5.95;3.58;;;;;;;;;;10250835;28;20088;-68
2022/07/19 03:39:52;;;;;;;7.32;4.10;;;;;;;;;;10250216;28;20053;-68
2022/07/19 03:44:51;;;;;;;10.45;5.53;;;;;;;;;;10252237;28;20049;-67
2022/07/19 03:49:50;;;;;;;16.55;6.13;;;;;;;;;;10252102;28;20076;-68
2022/07/19 03:54:48;;;;;;;27.58;10.98;;;;;;;;;;10251662;28;20046;-68
2022/07/19 03:59:46;;;;;;;32.58;14.18;;;;;;;;;;10250726;28;20522;-67
2022/07/19 04:04:46;;;;;;;15.70;8.43;;;;;;;;;;10237392;28;20531;-68
2022/07/19 04:09:44;;;;;;;31.02;11.95;;;;;;;;;;10237081;28;20079;-68
2022/07/19 04:14:43;;;;;;;38.50;21.80;;;;;;;;;;10236193;28;20502;-67
2022/07/19 04:19:41;;;;;;;21.40;8.38;;;;;;;;;;10252075;28;20069;-67
2022/07/19 04:24:41;;;;;;;21.92;7.72;;;;;;;;;;10236197;28;20100;-68
2022/07/19 04:29:39;;;;;;;17.40;8.15;;;;;;;;;;10234972;28;20069;-67
2022/07/19 04:34:38;;;;;;;19.30;8.82;;;;;;;;;;10230024;28;20073;-68
2022/07/19 04:39:37;;;;;;;31.27;14.23;;;;;;;;;;10245479;28;20103;-68
2022/07/19 04:44:37;;;;;;;34.63;12.70;;;;;;;;;;10248713;28;20125;-68
2022/07/19 04:49:36;;;;;;;27.38;12.13;;;;;;;;;;10247687;28;20159;-68
2022/07/19 04:54:34;;;;;;;30.40;13.15;;;;;;;;;;10247934;28;20060;-68
2022/07/19 04:59:32;;;;;;;32.72;12.68;;;;;;;;;;10244357;28;20069;-68
2022/07/19 05:04:32;;;;;;;27.23;9.98;;;;;;;;;;10244481;28;20076;-68
2022/07/19 05:09:30;;;;;;;23.92;9.48;;;;;;;;;;10247674;28;20073;-68
2022/07/19 05:14:29;;;;;;;19.73;6.50;;;;;;;;;;10244416;28;20072;-68
2022/07/19 05:19:27;;;;;;;21.98;7.68;;;;;;;;;;10244860;28;20084;-68
2022/07/19 05:24:27;;;;;;;20.88;7.90;;;;;;;;;;10244377;28;20073;-68
2022/07/19 05:29:25;;;;;;;16.35;5.32;;;;;;;;;;10243369;28;20510;-68
2022/07/19 05:34:24;;;;;;;17.88;6.38;;;;;;;;;;10249185;28;20069;-68
2022/07/19 05:39:22;;;;;;;13.70;5.65;;;;;;;;;;10248152;28;20096;-68
2022/07/19 05:44:22;;;;;;;17.88;6.28;;;;;;;;;;10234329;28;20053;-67
2022/07/19 05:49:21;;;;;;;23.75;5.75;;;;;;;;;;10232236;28;20086;-67
2022/07/19 05:54:19;;;;;;;18.83;6.38;;;;;;;;;;10232736;28;20054;-68
2022/07/19 05:59:20;;;;;;;17.80;5.10;;;;;;;;;;10244790;28;20077;-67
2022/07/19 06:04:20;;;;;;;27.55;7.78;;;;;;;;;;10244796;28;20085;-67
2022/07/19 06:09:18;;;;;;;9.88;4.80;;;;;;;;;;10247376;28;20487;-68
2022/07/19 06:14:17;;;;;;;8.93;4.15;;;;;;;;;;10241701;28;20041;-68
2022/07/19 06:19:15;;;;;;;8.27;3.10;;;;;;;;;;10247030;28;20045;-68
2022/07/19 06:24:15;;;;;;;9.80;3.10;;;;;;;;;;10246515;28;20088;-68
2022/07/19 06:29:13;;;;;;;7.68;3.13;;;;;;;;;;10245469;28;20073;-67
2022/07/19 06:34:11;;;;;;;7.05;2.70;;;;;;;;;;10246397;28;20048;-67
2022/07/19 06:39:10;;;;;;;10.18;6.75;;;;;;;;;;10250030;28;20049;-67
2022/07/19 06:44:10;;;;;;;21.73;12.50;;;;;;;;;;10254597;28;20072;-67
2022/07/19 06:49:09;;;;;;;13.63;4.13;;;;;;;;;;10253757;28;20096;-67
2022/07/19 06:54:07;;;;;;;14.20;4.10;;;;;;;;;;10253928;28;20444;-67
2022/07/19 06:59:05;;;;;;;10.57;4.55;;;;;;;;;;10253689;28;20048;-67
2022/07/19 07:04:05;;;;;;;5.93;2.30;;;;;;;;;;10251977;28;20087;-68
2022/07/19 07:09:03;;;;;;;3.50;1.83;;;;;;;;;;10253900;28;20073;-68
2022/07/19 07:14:02;;;;;;;4.43;2.10;;;;;;;;;;10253545;28;20560;-68
2022/07/19 07:19:00;;;;;;;5.57;2.92;;;;;;;;;;10256433;28;20075;-68
2022/07/19 07:24:00;;;;;;;6.97;2.08;;;;;;;;;;10253073;28;20081;-68
2022/07/19 07:28:58;;;;;;;10.25;2.90;;;;;;;;;;10253224;28;20083;-68
2022/07/19 07:33:56;;;;;;;4.65;2.60;;;;;;;;;;10252853;28;20041;-68
2022/07/19 07:38:57;;;;;;;8.63;3.22;;;;;;;;;;10252686;28;20107;-69
2022/07/19 07:43:56;;;;;;;10.55;2.42;;;;;;;;;;10252404;28;20044;-67
2022/07/19 07:48:55;;;;;;;3.55;1.85;;;;;;;;;;10251382;28;20494;-69
2022/07/19 07:53:54;;;;;;;8.15;2.50;;;;;;;;;;10252814;28;20079;-68
2022/07/19 07:58:52;;;;;;;8.43;2.83;;;;;;;;;;10251741;28;20065;-69
2022/07/19 08:03:52;;;;;;;5.72;2.90;;;;;;;;;;10245393;28;20473;-69
2022/07/19 08:08:50;;;;;;;4.75;2.35;;;;;;;;;;10238692;28;20092;-69
2022/07/19 08:13:49;;;;;;;7.10;2.65;;;;;;;;;;10238276;28;20041;-69
2022/07/19 08:18:47;;;;;;;6.72;1.80;;;;;;;;;;10238276;28;20049;-69
2022/07/19 08:23:48;;;;;;;6.10;2.83;;;;;;;;;;10243643;28;20087;-68
2022/07/19 08:28:47;;;;;;;3.00;1.88;;;;;;;;;;10252502;28;20069;-68
2022/07/19 08:33:46;;;;;;;5.03;2.00;;;;;;;;;;10250346;28;20093;-68
2022/07/19 08:38:46;;;;;;;5.95;2.38;;;;;;;;;;10237331;28;20084;-68
2022/07/19 08:43:45;;;;;;;8.35;2.85;;;;;;;;;;10231033;28;20084;-68
2022/07/19 08:48:45;;;;;;;12.15;2.78;;;;;;;;;;10236626;28;20486;-68
2022/07/19 08:53:46;;;;;;;2.72;1.80;;;;;;;;;;10249220;28;20062;-68
2022/07/19 08:58:46;;;;;;;7.13;2.42;;;;;;;;;;10249840;28;20049;-67
2022/07/19 09:03:59;;;;;;;3.03;1.90;;;;;;;;;;10243925;28;20077;-67
2022/07/19 09:09:03;;;;;;;3.30;1.83;;;;;;;;;;10237092;28;20064;-68
2022/07/19 09:14:06;;;;;;;4.50;2.30;;;;;;;;;;10235894;28;20045;-68
2022/07/19 09:19:04;;;;;;;;;;;;;;;;;;10236438;28;20085;-68
2022/07/19 09:24:03;;;;;;;4.78;2.13;;;;;;;;;;10245463;28;19924;-69
2022/07/19 09:34:28;;;;;;;5.65;3.05;;;;;;;;;;10317913;27;20417;-67
2022/07/19 09:39:28;;;;;;;5.97;2.47;;;;;;;;;;10308108;28;20096;-68
2022/07/19 09:44:26;;;;;;;3.65;1.80;;;;;;;;;;10308084;28;20087;-68
2022/07/19 09:49:25;;;;;;;2.38;1.85;;;;;;;;;;10309126;28;20057;-68
2022/07/19 09:54:25;;;;;;;4.65;2.75;;;;;;;;;;10308975;28;20077;-68
2022/07/19 09:59:24;;;;;;;4.82;2.67;;;;;;;;;;10308770;28;20126;-69
2022/07/19 10:04:23;;;;;;;4.82;2.20;;;;;;;;;;10300571;28;20095;-69
2022/07/19 10:09:22;;;;;;;5.18;2.78;;;;;;;;;;10309089;28;20045;-68
2022/07/19 10:14:28;;;;;;;3.92;2.00;;;;;;;;;;10308243;28;20130;-69
2022/07/19 10:19:31;;;;;;;4.50;2.05;;;;;;;;;;10301448;28;20043;-68
2022/07/19 10:24:58;;;;;;;5.07;1.67;;;;;;;;;;10306887;28;20087;-69
2022/07/19 10:30:19;;;;;;;3.42;2.50;;;;;;;;;;10266968;28;20085;-68
2022/07/19 10:35:18;;;;;;;4.75;2.45;;;;;;;;;;10304504;28;20056;-68
2022/07/19 10:40:31;;;;;;;3.95;2.00;;;;;;;;;;10305705;28;20079;-68
2022/07/19 10:45:31;;;;;;;6.20;3.20;;;;;;;;;;10281298;28;20135;-68
2022/07/19 10:50:44;;;;;;;3.10;2.65;;;;;;;;;;10279930;28;20073;-69
2022/07/19 10:55:43;;;;;;;3.00;1.63;;;;;;;;;;10273565;28;20529;-69
2022/07/19 11:00:43;;;;;;;5.85;2.45;;;;;;;;;;10278295;28;20068;-68
2022/07/19 11:05:46;;;;;;;4.50;1.88;;;;;;;;;;10280111;28;20055;-67
2022/07/19 11:10:45;;;;;;;2.47;1.80;;;;;;;;;;10279279;28;20132;-68
2022/07/19 11:15:54;;;;;;;5.07;2.58;;;;;;;;;;10279148;28;20075;-69
2022/07/19 11:20:53;;;;;;;5.57;2.70;;;;;;;;;;10277190;28;20071;-69
2022/07/19 11:25:52;;;;;;;7.07;2.28;;;;;;;;;;10277171;28;20080;-69
2022/07/19 11:30:52;;;;;;;4.03;2.58;;;;;;;;;;10271659;28;20081;-69
2022/07/19 11:35:54;;;;;;;5.95;2.53;;;;;;;;;;10278449;28;20521;-69
2022/07/19 11:40:52;;;;;;;3.88;2.60;;;;;;;;;;10278814;28;20045;-69
2022/07/19 11:45:52;;;;;;;3.95;1.75;;;;;;;;;;10276974;28;20077;-69
2022/07/19 11:50:57;;;;;;;7.15;2.15;;;;;;;;;;10276460;28;20076;-68
2022/07/19 11:55:57;;;;;;;7.10;2.30;;;;;;;;;;10275542;28;20057;-69
2022/07/19 12:01:02;;;;;;;4.30;2.20;;;;;;;;;;10275280;28;20426;-68
2022/07/19 12:06:01;;;;;;;7.15;2.88;;;;;;;;;;10276444;28;20076;-68
2022/07/19 12:11:00;;;;;;;3.45;2.25;;;;;;;;;;10275713;28;20076;-68
2022/07/19 12:16:00;;;;;;;4.40;2.10;;;;;;;;;;10275751;28;20103;-68
2022/07/19 12:21:16;;;;;;;8.40;2.05;;;;;;;;;;10275180;28;20490;-67
2022/07/19 12:26:17;;;;;;;6.68;2.45;;;;;;;;;;10275699;28;20053;-68
2022/07/19 12:31:43;;;;;;;9.18;4.28;;;;;;;;;;10273420;28;20107;-69
2022/07/19 12:36:45;;;;;;;3.22;2.45;;;;;;;;;;10275043;28;20509;-68
2022/07/19 12:41:52;;;;;;;5.38;2.30;;;;;;;;;;10274678;28;20049;-68
2022/07/19 12:46:50;;;;;;;5.20;2.13;;;;;;;;;;10273366;28;20048;-68
2022/07/19 12:52:10;;;;;;;9.52;4.00;;;;;;;;;;10274909;28;20505;-68
2022/07/19 12:57:08;;;;;;;3.05;2.00;;;;;;;;;;10273001;28;20505;-68
2022/07/19 13:02:07;;;;;;;5.85;2.05;;;;;;;;;;10274133;28;20597;-68
2022/07/19 13:07:06;;;;;;;7.28;1.83;;;;;;;;;;10275077;28;20451;-68
2022/07/19 13:12:07;;;;;;;4.57;2.45;;;;;;;;;;10275103;28;20073;-69
2022/07/19 13:17:06;;;;;;;2.83;2.28;;;;;;;;;;10273924;28;20040;-68
2022/07/19 13:22:05;;;;;;;2.33;1.85;;;;;;;;;;10273804;28;20049;-69
2022/07/19 13:27:04;;;;;;;4.65;2.22;;;;;;;;;;10273727;28;20041;-69
2022/07/19 13:32:03;;;;;;;3.47;1.67;;;;;;;;;;10271311;28;20533;-69
2022/07/19 13:37:06;;;;;;;7.13;1.90;;;;;;;;;;10273382;28;20422;-68
2022/07/19 13:42:05;;;;;;;8.27;1.90;;;;;;;;;;10271893;28;20080;-68
2022/07/19 13:47:04;;;;;;;3.40;2.20;;;;;;;;;;10274361;28;20124;-68
2022/07/19 13:52:03;;;;;;;3.72;2.00;;;;;;;;;;10273679;28;20069;-68
2022/07/19 13:57:01;;;;;;;4.47;1.48;;;;;;;;;;10274318;28;20065;-68
2022/07/19 14:02:00;;;;;;;4.03;1.90;;;;;;;;;;10266311;28;20489;-69
2022/07/19 14:06:59;;;;;;;4.38;1.88;;;;;;;;;;10271947;28;20068;-68
2022/07/19 14:11:58;;;;;;;4.63;2.42;;;;;;;;;;10272425;28;20080;-67
2022/07/19 14:16:56;;;;;;;7.65;2.53;;;;;;;;;;10273489;28;20068;-68
2022/07/19 14:21:57;;;;;;;6.38;2.17;;;;;;;;;;10278939;28;20048;-68
2022/07/19 14:26:57;;;;;;;5.80;1.73;;;;;;;;;;10279733;28;20075;-69
2022/07/19 14:31:55;;;;;;;3.50;2.10;;;;;;;;;;10278696;28;20081;-68
2022/07/19 14:36:54;;;;;;;3.80;1.63;;;;;;;;;;10278945;28;20076;-69
2022/07/19 14:41:52;;;;;;;3.00;1.92;;;;;;;;;;10279284;28;20056;-69
2022/07/19 14:46:53;;;;;;;4.82;2.22;;;;;;;;;;10279052;28;20079;-68
2022/07/19 14:51:51;;;;;;;5.35;3.05;;;;;;;;;;10279326;28;20064;-68
2022/07/19 14:56:50;;;;;;;3.60;2.15;;;;;;;;;;10278539;28;20120;-68
2022/07/19 15:01:48;;;;;;;3.25;1.65;;;;;;;;;;10275885;28;20072;-68
2022/07/19 15:06:48;;;;;;;2.65;1.58;;;;;;;;;;10276382;28;20041;-68
2022/07/19 15:11:46;;;;;;;9.40;1.80;;;;;;;;;;10278908;28;20048;-68
2022/07/19 15:16:45;;;;;;;6.63;3.10;;;;;;;;;;10278060;28;20399;-67
2022/07/19 15:21:43;;;;;;;4.25;2.00;;;;;;;;;;10277898;28;20069;-67
2022/07/19 15:26:43;;;;;;;5.43;2.22;;;;;;;;;;10277981;28;20588;-68
2022/07/19 15:31:41;;;;;;;4.82;2.50;;;;;;;;;;10276611;28;20511;-68
2022/07/19 15:36:40;;;;;;;3.83;1.98;;;;;;;;;;10276957;28;20076;-67
2022/07/19 15:41:38;;;;;;;2.90;2.00;;;;;;;;;;10277068;28;20049;-67
2022/07/19 15:46:38;;;;;;;11.60;2.78;;;;;;;;;;10270811;28;20064;-68
2022/07/19 15:51:44;;;;;;;3.13;1.80;;;;;;;;;;10275926;28;20418;-68
2022/07/19 15:56:42;;;;;;;9.30;2.22;;;;;;;;;;10277657;28;20497;-68
2022/07/19 16:01:42;;;;;;;6.80;3.88;;;;;;;;;;10276039;28;20088;-67
2022/07/19 16:06:40;;;;;;;7.32;2.00;;;;;;;;;;10270609;28;20080;-68
2022/07/19 16:11:39;;;;;;;9.38;2.10;;;;;;;;;;10272853;28;20052;-69
2022/07/19 16:16:37;;;;;;;4.20;1.95;;;;;;;;;;10275390;28;20072;-69
2022/07/19 16:21:37;;;;;;;3.63;1.80;;;;;;;;;;10275360;28;20151;-67
2022/07/19 16:26:36;;;;;;;3.65;2.47;;;;;;;;;;10273052;28;20090;-66
2022/07/19 16:31:54;;;;;;;3.25;2.03;;;;;;;;;;10272559;28;20503;-68
2022/07/19 16:36:54;;;;;;;6.65;2.38;;;;;;;;;;10274897;28;20087;-68
2022/07/19 16:41:52;;;;;;;2.83;1.90;;;;;;;;;;10273577;28;20541;-67
2022/07/19 16:46:51;;;;;;;4.35;2.15;;;;;;;;;;10274425;28;20503;-67
2022/07/19 16:51:49;;;;;;;3.05;1.98;;;;;;;;;;10274068;28;20045;-68
2022/07/19 16:56:56;;;;;;;3.38;2.15;;;;;;;;;;10273187;28;20084;-66
2022/07/19 17:01:54;;;;;;;4.40;2.63;;;;;;;;;;10273123;28;20069;-67
2022/07/19 17:06:53;;;;;;;3.53;2.28;;;;;;;;;;10273885;28;20163;-66
2022/07/19 17:11:51;;;;;;;5.85;2.63;;;;;;;;;;10273581;28;20072;-66
2022/07/19 17:16:51;;;;;;;11.20;4.72;;;;;;;;;;10273639;28;20126;-66
2022/07/19 17:21:49;;;;;;;4.07;2.33;;;;;;;;;;10271615;28;20064;-66
2022/07/19 17:26:48;;;;;;;6.70;3.70;;;;;;;;;;10269633;28;20060;-66
2022/07/19 17:31:46;;;;;;;7.90;5.57;;;;;;;;;;10272609;28;20628;-66
2022/07/19 17:36:46;;;;;;;6.68;5.70;;;;;;;;;;10273072;28;20069;-66
2022/07/19 17:41:46;;;;;;;9.82;6.32;;;;;;;;;;10273861;28;20107;-66
2022/07/19 17:46:44;;;;;;;8.38;7.13;;;;;;;;;;10273559;28;20076;-66
2022/07/19 17:51:43;;;;;;;7.43;4.55;;;;;;;;;;10273249;28;20080;-66
2022/07/19 17:56:42;;;;;;;10.50;4.95;;;;;;;;;;10281060;28;20080;-67
2022/07/19 18:01:41;;;;;;;8.07;3.33;;;;;;;;;;10280385;28;20079;-65
2022/07/19 18:06:39;;;;;;;7.47;4.78;;;;;;;;;;10278987;28;20144;-66
2022/07/19 18:11:46;;;;;;;7.10;5.25;;;;;;;;;;10280535;28;20045;-68
2022/07/19 18:16:44;;;;;;;5.05;2.70;;;;;;;;;;10280287;28;20069;-67
2022/07/19 18:22:03;;;;;;;4.63;3.00;;;;;;;;;;10279012;28;20076;-67
2022/07/19 18:27:03;;;;;;;7.50;5.05;;;;;;;;;;10279883;28;20076;-68
2022/07/19 18:32:01;;;;;;;7.72;6.82;;;;;;;;;;10276378;28;20084;-67
2022/07/19 18:37:00;;;;;;;5.63;4.22;;;;;;;;;;10280861;28;20068;-67
2022/07/19 18:41:58;;;;;;;6.20;4.88;;;;;;;;;;10274121;28;20076;-68
2022/07/19 18:46:58;;;;;;;8.25;2.88;;;;;;;;;;10272856;28;20045;-67
2022/07/19 18:52:02;;;;;;;5.03;2.00;;;;;;;;;;10279018;28;20077;-67
2022/07/19 18:57:01;;;;;;;5.18;2.72;;;;;;;;;;10273570;28;20065;-66
2022/07/19 19:02:01;;;;;;;3.28;1.90;;;;;;;;;;10276611;28;20071;-68
2022/07/19 19:07:02;;;;;;;4.40;2.37;;;;;;;;;;10277556;28;20068;-68
2022/07/19 19:12:01;;;;;;;2.75;2.38;;;;;;;;;;10271811;28;20091;-68
2022/07/19 19:17:01;;;;;;;1.48;1.30;;;;;;;;;;10278161;28;20081;-67
2022/07/19 19:21:59;;;;;;;7.07;2.28;;;;;;;;;;10278416;28;20060;-69
2022/07/19 19:27:00;;;;;;;1.88;1.73;;;;;;;;;;10277871;28;20084;-67
2022/07/19 19:31:58;;;;;;;2.45;1.83;;;;;;;;;;10277175;28;20146;-68
2022/07/19 19:36:58;;;;;;;6.32;2.97;;;;;;;;;;10277410;28;20057;-66
2022/07/19 19:41:57;;;;;;;4.78;2.22;;;;;;;;;;10277233;28;20083;-67
2022/07/19 19:46:55;;;;;;;14.68;5.30;;;;;;;;;;10275582;28;20073;-67
2022/07/19 19:51:54;;;;;;;6.13;4.55;;;;;;;;;;10275660;28;20073;-68
2022/07/19 19:56:54;;;;;;;5.75;3.00;;;;;;;;;;10281274;28;20099;-68
2022/07/19 20:01:53;;;;;;;4.20;2.40;;;;;;;;;;10273906;28;20569;-68
2022/07/19 20:06:55;;;;;;;11.05;9.38;;;;;;;;;;10276295;28;20041;-68
2022/07/19 20:11:55;;;;;;;10.57;7.03;;;;;;;;;;10274709;28;20073;-68
2022/07/19 20:16:53;;;;;;;2.58;2.00;;;;;;;;;;10272716;28;20087;-68
2022/07/19 20:21:52;;;;;;;2.35;1.20;;;;;;;;;;10270585;28;20492;-68
2022/07/19 20:26:50;;;;;;;11.23;1.75;;;;;;;;;;10273269;28;20521;-68
2022/07/19 20:31:50;;;;;;;3.08;1.83;;;;;;;;;;10271114;28;20095;-68
2022/07/19 20:36:49;;;;;;;3.03;1.75;;;;;;;;;;10270402;28;20061;-68
2022/07/19 20:41:47;;;;;;;2.33;1.75;;;;;;;;;;10267185;28;20407;-67
2022/07/19 20:46:46;;;;;;;2.45;1.55;;;;;;;;;;10270019;28;20068;-66
2022/07/19 20:51:45;;;;;;;4.13;2.15;;;;;;;;;;10269298;28;20076;-68
2022/07/19 20:56:44;;;;;;;3.83;1.52;;;;;;;;;;10269779;28;20087;-67
2022/07/19 21:01:42;;;;;;;5.50;1.65;;;;;;;;;;10271428;28;20506;-67
2022/07/19 21:06:40;;;;;;;2.30;1.30;;;;;;;;;;10272371;28;20080;-67
2022/07/19 21:11:40;;;;;;;1.65;1.33;;;;;;;;;;10272160;28;20063;-69
2022/07/19 21:16:38;;;;;;;3.90;1.67;;;;;;;;;;10273235;28;20510;-66
2022/07/19 21:21:37;;;;;;;7.20;1.70;;;;;;;;;;10272865;28;20044;-67
2022/07/19 21:26:36;;;;;;;1.90;1.50;;;;;;;;;;10272764;28;20368;-68
2022/07/19 21:31:35;;;;;;;2.63;1.75;;;;;;;;;;10272737;28;20053;-67
2022/07/19 21:36:34;;;;;;;1.52;1.15;;;;;;;;;;10271655;28;20506;-67
2022/07/19 21:41:33;;;;;;;4.93;1.50;;;;;;;;;;10270895;28;20091;-67
2022/07/19 21:46:31;;;;;;;5.90;1.75;;;;;;;;;;10273689;28;20041;-67
2022/07/19 21:51:33;;;;;;;2.30;1.20;;;;;;;;;;10274019;28;20042;-68
2022/07/19 21:56:34;;;;;;;2.40;1.30;;;;;;;;;;10273601;28;20190;-66
2022/07/19 22:01:32;;;;;;;3.60;1.40;;;;;;;;;;10272723;28;20355;-68
2022/07/19 22:06:31;;;;;;;2.78;1.33;;;;;;;;;;10272555;28;20068;-68
2022/07/19 22:11:31;;;;;;;3.42;1.63;;;;;;;;;;10273174;28;20052;-68
2022/07/19 22:16:29;;;;;;;1.40;1.10;;;;;;;;;;10273606;28;20087;-68
2022/07/19 22:21:27;;;;;;;2.35;1.45;;;;;;;;;;10273923;28;20041;-67
2022/07/19 22:26:26;;;;;;;1.73;1.40;;;;;;;;;;10273018;28;20045;-67
2022/07/19 22:31:25;;;;;;;6.78;1.48;;;;;;;;;;10272415;28;20045;-67
2022/07/19 22:36:24;;;;;;;5.30;1.58;;;;;;;;;;10272880;28;20080;-68
2022/07/19 22:41:22;;;;;;;1.85;1.65;;;;;;;;;;10279221;28;20056;-67
2022/07/19 22:46:20;;;;;;;4.40;1.52;;;;;;;;;;10273974;28;20419;-68
2022/07/19 22:51:20;;;;;;;3.60;1.30;;;;;;;;;;10278733;28;20499;-68
2022/07/19 22:56:21;;;;;;;3.90;1.38;;;;;;;;;;10279456;28;20077;-68
2022/07/19 23:01:19;;;;;;;1.63;1.20;;;;;;;;;;10280005;28;20048;-68
2022/07/19 23:06:18;;;;;;;2.97;2.10;;;;;;;;;;10279845;28;20081;-67
2022/07/19 23:11:17;;;;;;;3.15;1.00;;;;;;;;;;10277732;28;20525;-67
2022/07/19 23:16:16;;;;;;;2.78;1.50;;;;;;;;;;10277957;28;20091;-68
2022/07/19 23:21:14;;;;;;;1.50;1.20;;;;;;;;;;10277826;28;20083;-68
2022/07/19 23:26:13;;;;;;;3.22;1.65;;;;;;;;;;10274498;28;20044;-67
2022/07/19 23:31:12;;;;;;;3.50;1.55;;;;;;;;;;10276779;28;20081;-67
2022/07/19 23:36:11;;;;;;;1.42;1.23;;;;;;;;;;10277498;28;20073;-69
2022/07/19 23:41:09;;;;;;;2.13;1.30;;;;;;;;;;10277105;28;20499;-67
2022/07/19 23:46:11;;;;;;;5.57;1.52;;;;;;;;;;10276670;28;20069;-68
2022/07/19 23:51:11;;;;;;;1.60;1.38;;;;;;;;;;10276746;28;20064;-68
2022/07/19 23:56:09;;;;;;;5.80;1.55;;;;;;;;;;10277391;28;20064;-67
